Tiempo atmosférico en la estación meteorológica de Chandrexa De Queixa, Ourense (990 m.)



Fecha
DESCASC
Temp. máxima en grados centígrados (hora)
DESCASC
Temp. mínima en grados centígrados (hora)
DESCASC
Temp. media en grados centígrados
DESCASC
Racha de viento máxima en m/sg (hora)
DESCASC
Velocidad máxima media en intervalos de 10 minutos(hora)
DESCASC
Precipitaciones diarias en mm
DESCASC
Precipitaciones de 00:00 a 06:00 en mm
DESCASC
Precipitaciones de 06:00 a 12:00 en mm
DESCASC
Precipitaciones de 12:00 a 18:00 en mm
DESCASC
Precipitaciones de 18:00 a 24:00 en mm
DESCASC
31-03-2020 4.8 (20:10) -2.4 (03:30) 1.2 9.17 (11:40) 4.72 (12:10) 4.8 0 0 3.8 1
29-03-2020 15.3 (14:50) 0.2 (00:00) 7.8 6.39 (14:40) 3.06 (17:00) 0 0 0 0 0
28-03-2020 14.5 (15:10) -0.9 (-00:0) 6.8 6.11 (15:40) 2.78 (15:40) 0 0 0 0 0
27-03-2020 14.7 (15:30) -3.6 (-00:0) 5.5 10.28 (14:40) 7.22 (21:20) 0 0 0 0 0
26-03-2020 12.9 (13:00) -2.1 (-00:0) 5.4 7.22 (15:00) 4.17 (16:30) 0 0 0 0 0
25-03-2020 15.6 (14:50) 2.6 (00:00) 9.1 10.56 (17:10) 5.56 (17:10) 0 0 0 0 0
24-03-2020 16 (17:40) 3.2 (00:00) 9.6 6.94 (11:40) 3.61 (11:10) 0 0 0 0 0
23-03-2020 15.4 (17:10) 0.7 (00:00) 8 6.94 (16:20) 3.89 (11:30) 0 0 0 0 0
22-03-2020 14.4 (14:50) 5.3 (23:59) 9.8 10.83 (21:20) 6.67 (21:20) 0 0 0 0 0
21-03-2020 11.7 (17:10) 7.2 (00:00) 9.4 6.94 (06:30) 3.89 (16:50) 0.2 0.2 0 0 0
20-03-2020 11.2 (11:40) 7.3 (00:00) 9.3 10.83 (16:00) 6.39 (16:20) 2 0.8 1.2 0 0
19-03-2020 19.3 (13:40) 5.6 (00:00) 12.4 10.28 (11:30) 8.33 (11:30) 2.8 0 0 0 2.8
18-03-2020 18.9 (16:30) 1.9 (00:00) 10.4 4.72 (14:10) 2.78 (14:10) 0 0 0 0 0
17-03-2020 14.9 (16:00) 0.4 (00:00) 7.6 8.33 (12:50) 3.89 (12:50) 0 0 0 0 0
16-03-2020 5.4 (17:20) -0.2 (00:00) 2.6 10.83 (18:40) 4.17 (17:40) 7.6 0 5.6 2 0
15-03-2020 12.8 (14:10) 0.1 (00:00) 6.5 10.28 (14:40) 5.28 (14:40) 4.6 0 0 4.4 0.2
14-03-2020 19.6 (15:10) -1 (-00:0) 9.3 6.11 (16:30) 3.61 (11:20) 0 0 0 0 0
13-03-2020 13.5 (16:20) 4.1 (23:20) 8.8 5.83 (17:00) 3.06 (17:00) 0 0 0 0 0
12-03-2020 12.3 (15:30) 5.2 (00:00) 8.8 5 (17:10) 2.5 (17:10) 0 0 0 0 0
11-03-2020 22.2 (16:00) 3.7 (00:00) 13 9.17 (12:40) 5.83 (12:40) 0 0 0 0 0
10-03-2020 21.1 (14:00) 2.4 (00:00) 11.8 7.78 (15:10) 4.44 (15:30) 0 0 0 0 0
09-03-2020 12.9 (15:40) 0.9 (00:00) 6.9 5.83 (14:20) 2.5 (14:00) 0 0 0 0 0
08-03-2020 12.2 (16:40) 1.4 (00:00) 6.8 11.39 (16:10) 5 (15:30) 0 0 0 0 0
07-03-2020 14.1 (16:00) 3.1 (00:00) 8.6 5 (16:50) 3.33 (18:00) 1.8 1.2 0.6 0 0
06-03-2020 6.3 (17:10) 1.2 (00:00) 3.8 13.61 (00:50) 7.5 (12:20) 6.8 4.8 1.4 0 0.6
05-03-2020 9.7 (01:00) 3 (00:00) 6.3 25.28 (04:10) 15.83 (02:30) 24.6 12.4 5 4.6 2.6
04-03-2020 11.5 (14:40) 7.8 (00:00) 9.7 18.33 (23:59) 10 (23:59) 4.2 1.4 0.2 0.2 2.4
03-03-2020 10.7 (14:20) 3.6 (00:00) 7.1 22.22 (04:40) 13.61 (05:20) 14.4 3.6 7.4 2.2 1.2
02-03-2020 9.2 (02:00) 0.5 (00:00) 4.8 27.5 (02:20) 13.06 (02:20) 18.8 7.4 8 2.6 0.8

Gráficas

Temp. máximas Temp. mínimas Temp. medias Precipitaciones Rachas de viento máximas Velocidades máximas media en intervalos de 10 minutos

Datos horarios

Fecha y hora oficial Temperatura (ºC) Velocidad del viento (km/h) Dirección del viento Racha (km/h) Dirección de racha Precipitación (mm) Presión (hPa) Tendencia (hPa) Humedad (%)
2020-03-31 23:00:00 3.9 8 Nordeste 16 Nordeste 0 -- -- 93
2020-03-31 22:00:00 4.3 5 Norte 15 Norte 0 -- -- 89
2020-03-31 21:00:00 4.6 9 Nordeste 17 Nordeste 0 -- -- 86
2020-03-31 20:00:00 4.7 3 Nordeste 8 Nordeste 0.2 -- -- 90
2020-03-31 19:00:00 4.7 2 Este 7 Sur 0.8 -- -- 95
2020-03-31 18:00:00 4 2 Oeste 6 Oeste 1 -- -- 94
2020-03-31 17:00:00 3.5 2 Oeste 7 Nordeste 1.2 -- -- 95
2020-03-31 16:00:00 2.1 3 Norte 14 Norte 1.6 -- -- 98
2020-03-31 15:00:00 0.4 6 Nordeste 23 Nordeste 0 -- -- 97
2020-03-31 14:00:00 0.1 10 Norte 23 Nordeste 0 -- -- 93
2020-03-31 13:00:00 0.3 12 Norte 33 Nordeste 0 -- -- 84
2020-03-31 12:00:00 0.5 17 Nordeste 33 Nordeste 0 -- -- 75
2020-03-31 11:00:00 -0.5 10 Nordeste 22 Nordeste 0 -- -- 83
2020-03-31 10:00:00 -0.8 11 Norte 27 Nordeste 0 -- -- 76
2020-03-31 09:00:00 -1.4 3 Nordeste 22 Norte 0 -- -- 75
2020-03-31 08:00:00 -1.3 7 Norte 23 Norte 0 -- -- 72
2020-03-31 07:00:00 -1.6 11 Nordeste 21 Norte 0 -- -- 72
2020-03-31 06:00:00 -1.5 5 Norte 21 Norte 0 -- -- 69
2020-03-31 05:00:00 -2 3 Norte 13 Norte 0 -- -- 70
2020-03-31 04:00:00 -2.3 3 Nordeste 15 Noroeste 0 -- -- 72
2020-03-31 03:00:00 -2.3 5 Norte 13 Nordeste 0 -- -- 70
2020-03-31 02:00:00 -1.9 6 Nordeste 19 Nordeste 0 -- -- 65
2020-03-31 01:00:00 -1.4 7 Nordeste 22 Nordeste 0 -- -- 62
2020-03-31 00:00:00 -0.9 11 Nordeste 22 Nordeste 0 -- -- 61
2020-03-30 23:00:00 -0.3 5 Nordeste 18 Nordeste 0 -- -- 58
2020-03-30 22:00:00 0.8 13 Nordeste 36 Nordeste 0 -- -- 52
2020-03-30 21:00:00 1.7 12 Nordeste 41 Nordeste 0 -- -- 53
2020-03-30 20:00:00 3.4 19 Nordeste 40 Nordeste 0 -- -- 46
2020-03-30 19:00:00 5.2 14 Nordeste 34 Nordeste 0 -- -- 44
2020-03-30 18:00:00 6.4 10 Nordeste 30 Nordeste 0 -- -- 45
2020-03-30 17:00:00 5.6 10 Este 26 Nordeste 0 -- -- 51
2020-03-30 16:00:00 4.9 10 Este 27 Nordeste 0 -- -- 55
2020-03-30 15:00:00 3.8 14 Nordeste 32 Nordeste 0 -- -- 58
2020-03-30 14:00:00 2.6 8 Norte 23 Nordeste 0 -- -- 69
2020-03-30 13:00:00 1.8 12 Nordeste 25 Nordeste 0 -- -- 76
2020-03-30 12:00:00 1.6 15 Nordeste 32 Norte 0 -- -- 78
2020-03-30 11:00:00 1.7 9 Nordeste 31 Nordeste 0 -- -- 83
2020-03-30 10:00:00 1.4 12 Nordeste 24 Norte 0 -- -- 91
2020-03-30 09:00:00 2.3 12 Nordeste 25 Nordeste 0 -- -- 85
2020-03-30 08:00:00 3.3 11 Nordeste 22 Nordeste 0 -- -- 82
2020-03-30 07:00:00 3.3 3 Nordeste 10 Nordeste 0 -- -- 90
2020-03-30 06:00:00 3.5 0 Calma 3 Sudeste 0 -- -- 93
2020-03-30 05:00:00 3.4 2 Sur 7 Sudeste 0 -- -- 93
2020-03-30 04:00:00 3.5 0 Calma 2 Sur 0 -- -- 90
2020-03-30 03:00:00 4 0 Calma 3 Sur 0 -- -- 89
2020-03-30 02:00:00 4.5 0 Calma 4 Sur 0 -- -- 86
2020-03-30 01:00:00 4.7 0 Calma 6 Norte 0 -- -- 84
2020-03-30 00:00:00 5.6 2 Este 8 Sudoeste 0 -- -- 82
2020-03-29 23:00:00 7 4 Oeste 10 Oeste 0 -- -- 78
2020-03-29 22:00:00 7.8 2 Oeste 13 Noroeste 0 -- -- 75
2020-03-29 21:00:00 9.1 3 Nordeste 21 Norte 0 -- -- 72
2020-03-29 20:00:00 11.1 7 Norte 19 Norte 0 -- -- 65
2020-03-29 19:00:00 12.1 8 Norte 22 Norte 0 -- -- 57
2020-03-29 18:00:00 13.2 5 Norte 18 Noroeste 0 -- -- 51
2020-03-29 17:00:00 14.7 11 Noroeste 22 Noroeste 0 -- -- 46
2020-03-29 16:00:00 14.2 4 Norte 17 Sudeste 0 -- -- 45
2020-03-29 15:00:00 14.7 6 Norte 23 Noroeste 0 -- -- 40
2020-03-29 14:00:00 14.2 8 Nordeste 17 Norte 0 -- -- 43
2020-03-29 13:00:00 13.3 6 Norte 12 Nordeste 0 -- -- 42
2020-03-29 12:00:00 10.4 6 Norte 10 Norte 0 -- -- 55
2020-03-29 11:00:00 7.8 2 Noroeste 5 Sudoeste 0 -- -- 63
2020-03-29 10:00:00 2.6 3 Oeste 7 Oeste 0 -- -- 84
2020-03-29 09:00:00 0.3 4 Sudoeste 9 Sudoeste 0 -- -- 91
2020-03-29 08:00:00 0.3 4 Sudoeste 7 Sudoeste 0 -- -- 91
2020-03-29 07:00:00 0.6 3 Sudoeste 9 Sudoeste 0 -- -- 91
2020-03-29 06:00:00 0.8 3 Sudoeste 10 Sudoeste 0 -- -- 90
2020-03-29 05:00:00 1.2 2 Sudoeste 9 Oeste 0 -- -- 89
2020-03-29 03:00:00 1.9 4 Oeste 9 Sudoeste 0 -- -- 86
2020-03-29 01:00:00 2.6 3 Sudoeste 8 Sudoeste 0 -- -- 83
2020-03-29 00:00:00 3.4 3 Sudoeste 7 Sudoeste 0 -- -- 80
2020-03-28 23:00:00 4.4 2 Sudoeste 9 Sudoeste 0 -- -- 74
2020-03-28 22:00:00 5.6 8 Sur 13 Sur 0 -- -- 66
2020-03-28 21:00:00 7.7 5 Sur 10 Sudeste 0 -- -- 58
2020-03-28 20:00:00 10.6 0 Calma 9 Norte 0 -- -- 49
2020-03-28 19:00:00 12.7 3 Noroeste 14 Noroeste 0 -- -- 42
2020-03-28 18:00:00 13.1 5 Norte 16 Norte 0 -- -- 39
2020-03-28 17:00:00 14 4 Norte 17 Norte 0 -- -- 40
2020-03-28 16:00:00 13.9 9 Norte 22 Norte 0 -- -- 40
2020-03-28 15:00:00 14.4 5 Noroeste 15 Noroeste 0 -- -- 38
2020-03-28 14:00:00 12.5 6 Noroeste 13 Noroeste 0 -- -- 38
2020-03-28 13:00:00 11.2 6 Norte 16 Norte 0 -- -- 43
2020-03-28 12:00:00 9.5 5 Nordeste 10 Norte 0 -- -- 50
2020-03-28 11:00:00 6.8 3 Norte 6 Nordeste 0 -- -- 65
2020-03-28 10:00:00 3.6 0 Calma 3 Noroeste 0 -- -- 74
2020-03-28 09:00:00 0.7 0 Calma 4 Sudoeste 0 -- -- 84
2020-03-28 08:00:00 -0.6 0 Calma 4 Sudoeste 0 -- -- 87
2020-03-28 07:00:00 -0.9 2 Oeste 8 Oeste 0 -- -- 88
2020-03-28 06:00:00 -0.9 2 Sudoeste 5 Oeste 0 -- -- 87
2020-03-28 05:00:00 -0.6 2 Sudoeste 8 Oeste 0 -- -- 85
2020-03-28 04:00:00 -0.4 3 Oeste 7 Oeste 0 -- -- 86
2020-03-28 03:00:00 0.2 4 Sudoeste 7 Oeste 0 -- -- 82
2020-03-28 02:00:00 0.8 2 Sudoeste 4 Sudeste 0 -- -- 74
2020-03-28 01:00:00 2 2 Oeste 5 Sur 0 -- -- 71
2020-03-28 00:00:00 3.9 3 Sudoeste 15 Sudeste 0 -- -- 60
2020-03-27 23:00:00 5.9 13 Sudeste 25 Sudeste 0 -- -- 50
2020-03-27 22:00:00 6.3 21 Sudeste 33 Sudeste 0 -- -- 48
2020-03-27 21:00:00 6.5 21 Sudeste 30 Sudeste 0 -- -- 47
2020-03-27 20:00:00 7.8 17 Sudeste 30 Sur 0 -- -- 42
2020-03-27 19:00:00 9.7 22 Sur 30 Sur 0 -- -- 37
2020-03-27 18:00:00 12 15 Sur 32 Sur 0 -- -- 31
2020-03-27 17:00:00 13.2 13 Sudeste 32 Sur 0 -- -- 34
2020-03-27 16:00:00 14.6 13 Sudeste 28 Sur 0 -- -- 31
2020-03-27 15:00:00 14.1 15 Sur 37 Sur 0 -- -- 33
2020-03-27 14:00:00 13 12 Sur 32 Sudeste 0 -- -- 31
2020-03-27 13:00:00 11.6 15 Sudeste 31 Sudeste 0 -- -- 32
2020-03-27 12:00:00 8.2 5 Oeste 21 Noroeste 0 -- -- 46
2020-03-27 11:00:00 5.1 8 Nordeste 17 Nordeste 0 -- -- 69
2020-03-27 10:00:00 2 8 Nordeste 14 Nordeste 0 -- -- 82
2020-03-27 09:00:00 -1.1 0 Calma 3 Sudeste 0 -- -- 91
2020-03-27 08:00:00 -3.5 0 Calma 6 Sur 0 -- -- 94
2020-03-27 07:00:00 -3.3 0 Calma 8 Sur 0 -- -- 95
2020-03-27 06:00:00 -3.1 2 Sur 5 Sudoeste 0 -- -- 92
2020-03-27 05:00:00 -2.5 2 Sudoeste 8 Sudoeste 0 -- -- 92
2020-03-27 04:00:00 -2 2 Sur 5 Sudoeste 0 -- -- 93
2020-03-27 03:00:00 -1.1 0 Calma 4 Sudoeste 0 -- -- 94
2020-03-27 02:00:00 -0.4 0 Calma 5 Sudoeste 0 -- -- 94
2020-03-27 01:00:00 0.1 4 Sur 5 Sudoeste 0 -- -- 86
2020-03-27 00:00:00 1.2 0 Calma 5 Sur 0 -- -- 90
2020-03-26 23:00:00 2.4 2 Sur 7 Sudeste 0 -- -- 82
2020-03-26 22:00:00 3.9 0 Calma 6 Norte 0 -- -- 83
2020-03-26 21:00:00 5.6 3 Norte 6 Nordeste 0 -- -- 78
2020-03-26 20:00:00 7.7 3 Norte 17 Noroeste 0 -- -- 69
2020-03-26 19:00:00 10.4 6 Norte 21 Norte 0 -- -- 59
2020-03-26 18:00:00 10.8 9 Norte 22 Norte 0 -- -- 54
2020-03-26 17:00:00 12.1 8 Norte 26 Norte 0 -- -- 48
2020-03-26 16:00:00 12.7 9 Norte 22 Norte 0 -- -- 43
2020-03-26 15:00:00 12.4 10 Norte 26 Norte 0 -- -- 39
2020-03-26 14:00:00 12.3 9 Noroeste 23 Norte 0 -- -- 34
2020-03-26 13:00:00 12.9 5 Nordeste 22 Nordeste 0 -- -- 21
2020-03-26 12:00:00 11.3 8 Nordeste 20 Nordeste 0 -- -- 25
2020-03-26 11:00:00 10.7 7 Nordeste 16 Nordeste 0 -- -- 20
2020-03-26 10:00:00 6.6 2 Sur 5 Sudeste 0 -- -- 41
2020-03-26 09:00:00 1.2 3 Sur 5 Sur 0 -- -- 54
2020-03-26 08:00:00 -2.1 2 Sudoeste 6 Sudoeste 0 -- -- 83
2020-03-26 07:00:00 -2 4 Sudoeste 6 Sudoeste 0 -- -- 83
2020-03-26 06:00:00 -1.4 3 Sudoeste 6 Sudoeste 0 -- -- 85
2020-03-26 05:00:00 -0.8 3 Sudoeste 6 Sur 0 -- -- 81
2020-03-26 04:00:00 -0.2 4 Sudoeste 6 Sudoeste 0 -- -- 76
2020-03-26 03:00:00 1.1 3 Sur 10 Sur 0 -- -- 70
2020-03-26 02:00:00 2.2 6 Sur 15 Sur 0 -- -- 74
2020-03-26 01:00:00 3.4 4 Sur 11 Sur 0 -- -- 73
2020-03-26 00:00:00 4.9 3 Sur 9 Sur 0 -- -- 71
2020-03-25 23:00:00 6.8 4 Sudoeste 12 Sur 0 -- -- 73
2020-03-25 22:00:00 8.2 0 Calma 11 Noroeste 0 -- -- 71
2020-03-25 21:00:00 9.9 4 Noroeste 17 Norte 0 -- -- 64
2020-03-25 20:00:00 11.5 4 Norte 24 Norte 0 -- -- 61
2020-03-25 19:00:00 13.7 8 Noroeste 34 Noroeste 0 -- -- 51
2020-03-25 18:00:00 14.3 14 Noroeste 38 Noroeste 0 -- -- 47
2020-03-25 17:00:00 15.6 18 Noroeste 37 Noroeste 0 -- -- 46
2020-03-25 16:00:00 15.5 15 Noroeste 34 Noroeste 0 -- -- 51
2020-03-25 15:00:00 14.7 13 Norte 31 Noroeste 0 -- -- 53
2020-03-25 14:00:00 14.7 13 Noroeste 35 Norte 0 -- -- 49
2020-03-25 13:00:00 13.9 14 Noroeste 31 Noroeste 0 -- -- 55
2020-03-25 12:00:00 14.1 8 Norte 24 Noroeste 0 -- -- 49
2020-03-25 11:00:00 12.7 6 Norte 17 Noroeste 0 -- -- 61
2020-03-25 10:00:00 6.7 2 Sur 7 Sudoeste 0 -- -- 93
2020-03-25 09:00:00 3.4 5 Sudoeste 10 Oeste 0 -- -- 96
2020-03-25 08:00:00 2.6 4 Sudoeste 9 Oeste 0 -- -- 97
2020-03-25 07:00:00 2.8 3 Sudoeste 9 Sudoeste 0 -- -- 96
2020-03-25 06:00:00 3.1 4 Sudoeste 9 Sudoeste 0 -- -- 95
2020-03-25 05:00:00 3.5 5 Sudoeste 10 Sudoeste 0 -- -- 94
2020-03-25 04:00:00 3.9 5 Oeste 12 Sudoeste 0 -- -- 93
2020-03-25 03:00:00 4.3 5 Sudoeste 13 Sudoeste 0 -- -- 91
2020-03-25 02:00:00 4.7 6 Sudoeste 11 Sudoeste 0 -- -- 92
2020-03-25 01:00:00 5 5 Sudoeste 10 Sudoeste 0 -- -- 89
2020-03-25 00:00:00 5.9 5 Sur 8 Sudoeste 0 -- -- 83
2020-03-24 23:00:00 6.9 4 Sur 10 Sur 0 -- -- 78
2020-03-24 22:00:00 8.3 4 Sur 7 Sur 0 -- -- 73
2020-03-24 21:00:00 10 4 Sur 7 Sudoeste 0 -- -- 70
2020-03-24 20:00:00 11.8 4 Sur 8 Sur 0 -- -- 65
2020-03-24 19:00:00 14 2 Sudeste 15 Nordeste 0 -- -- 54
2020-03-24 18:00:00 15.2 8 Norte 18 Norte 0 -- -- 51
2020-03-24 17:00:00 15.2 2 Nordeste 19 Este 0 -- -- 52
2020-03-24 16:00:00 13.9 8 Norte 19 Norte 0 -- -- 58
2020-03-24 15:00:00 14.3 9 Norte 18 Norte 0 -- -- 57
2020-03-24 14:00:00 13.4 8 Norte 20 Nordeste 0 -- -- 60
2020-03-24 13:00:00 14 9 Norte 22 Norte 0 -- -- 60
2020-03-24 12:00:00 12.2 10 Norte 25 Nordeste 0 -- -- 66
2020-03-24 11:00:00 10.8 13 Norte 22 Nordeste 0 -- -- 71
2020-03-24 10:00:00 8.4 10 Nordeste 18 Nordeste 0 -- -- 82
2020-03-24 09:00:00 5.3 0 Calma 6 Sudeste 0 -- -- 93
2020-03-24 08:00:00 3.4 3 Noroeste 8 Norte 0 -- -- 95
2020-03-24 07:00:00 4.5 5 Nordeste 11 Norte 0 -- -- 92
2020-03-24 06:00:00 4.7 2 Este 10 Norte 0 -- -- 91
2020-03-24 05:00:00 6.3 4 Sur 13 Sudeste 0 -- -- 81
2020-03-24 04:00:00 6.7 9 Sudeste 21 Sudeste 0 -- -- 81
2020-03-24 03:00:00 6.1 9 Sur 16 Sudeste 0 -- -- 86
2020-03-24 02:00:00 6.4 2 Noroeste 13 Sudeste 0 -- -- 82
2020-03-24 01:00:00 5.4 4 Sudeste 14 Sudeste 0 -- -- 89
2020-03-24 00:00:00 5.5 5 Sur 12 Sudeste 0 -- -- 91
2020-03-23 23:00:00 5.9 0 Calma 9 Sudeste 0 -- -- 96
2020-03-23 22:00:00 6.8 4 Sur 8 Sur 0 -- -- 90
2020-03-23 21:00:00 8.5 3 Sur 6 Oeste 0 -- -- 88
2020-03-23 20:00:00 10.5 0 Calma 8 Norte 0 -- -- 79
2020-03-23 19:00:00 12.5 4 Norte 14 Norte 0 -- -- 68
2020-03-23 18:00:00 13.2 6 Nordeste 15 Norte 0 -- -- 51
2020-03-23 17:00:00 15.1 8 Este 25 Norte 0 -- -- 50
2020-03-23 16:00:00 14.8 13 Norte 24 Norte 0 -- -- 50
2020-03-23 15:00:00 14.1 9 Norte 21 Noroeste 0 -- -- 51
2020-03-23 14:00:00 14.1 12 Norte 22 Norte 0 -- -- 55
2020-03-23 13:00:00 12.4 11 Norte 22 Nordeste 0 -- -- 64
2020-03-23 12:00:00 11 9 Norte 23 Norte 0 -- -- 66
2020-03-23 11:00:00 9.4 3 Nordeste 12 Este 0 -- -- 78
2020-03-23 10:00:00 5.9 3 Nordeste 5 Nordeste 0 -- -- 90
2020-03-23 09:00:00 2.4 0 Calma 4 Sudoeste 0 -- -- 100
2020-03-23 08:00:00 0.8 2 Sur 5 Oeste 0 -- -- 100
2020-03-23 07:00:00 0.9 0 Calma 5 Oeste 0 -- -- 100
2020-03-23 06:00:00 1.3 3 Sur 5 Sudoeste 0 -- -- 99
2020-03-23 05:00:00 1.7 0 Calma 4 Oeste 0 -- -- 98
2020-03-23 04:00:00 2.3 2 Sudoeste 6 Sudoeste 0 -- -- 98
2020-03-23 03:00:00 2.8 2 Sudoeste 5 Sudoeste 0 -- -- 96
2020-03-23 02:00:00 3.6 3 Sudoeste 6 Sur 0 -- -- 95
2020-03-23 01:00:00 4.4 0 Calma 4 Sur 0 -- -- 93
2020-03-23 00:00:00 5.3 0 Calma 5 Sudoeste 0 -- -- 90
2020-03-22 23:00:00 6.6 4 Sur 8 Sur 0 -- -- 83
2020-03-22 22:00:00 7.9 2 Sudeste 39 Sudeste 0 -- -- 76
2020-03-22 21:00:00 9.3 17 Sudeste 35 Sur 0 -- -- 78
2020-03-22 20:00:00 10.1 2 Nordeste 6 Oeste 0 -- -- 87
2020-03-22 19:00:00 10.4 0 Calma 10 Noroeste 0 -- -- 83
2020-03-22 18:00:00 10.7 6 Noroeste 19 Noroeste 0 -- -- 81
2020-03-22 17:00:00 10.7 7 Noroeste 28 Noroeste 0 -- -- 81
2020-03-22 16:00:00 12.8 11 Noroeste 26 Noroeste 0 -- -- 74
2020-03-22 15:00:00 14.3 6 Noroeste 19 Noroeste 0 -- -- 65
2020-03-22 14:00:00 13.7 9 Norte 26 Norte 0 -- -- 67
2020-03-22 13:00:00 12.4 12 Norte 22 Norte 0 -- -- 70
2020-03-22 12:00:00 12.1 7 Norte 14 Norte 0 -- -- 75
2020-03-22 11:00:00 9.3 3 Sudoeste 8 Sur 0 -- -- 91
2020-03-22 10:00:00 7.4 2 Oeste 5 Oeste 0 -- -- 96
2020-03-22 09:00:00 6.4 0 Calma 5 Sudeste 0 -- -- 99
2020-03-22 08:00:00 5.9 0 Calma 5 Este 0 -- -- 99
2020-03-22 07:00:00 6 0 Calma 3 Este 0 -- -- 98
2020-03-22 06:00:00 6.7 0 Calma 3 Nordeste 0 -- -- 97
2020-03-22 05:00:00 6.9 0 Calma 2 Nordeste 0 -- -- 96
2020-03-22 04:00:00 7.1 3 Este 5 Sudeste 0 -- -- 96
2020-03-22 03:00:00 7.2 0 Calma 3 Nordeste 0 -- -- 97
2020-03-22 02:00:00 7.2 0 Calma 5 Noroeste 0 -- -- 97
2020-03-22 01:00:00 7.3 3 Norte 5 Noroeste 0 -- -- 95
2020-03-22 00:00:00 7.5 2 Oeste 12 Noroeste 0 -- -- 93
2020-03-21 23:00:00 7.9 2 Norte 9 Noroeste 0 -- -- 94
2020-03-21 22:00:00 8 0 Calma 4 Oeste 0 -- -- 92
2020-03-21 21:00:00 8.1 0 Calma 11 Oeste 0 -- -- 91
2020-03-21 20:00:00 9.3 0 Calma 15 Sudeste 0 -- -- 86
2020-03-21 19:00:00 10.4 7 Sudeste 15 Sudeste 0 -- -- 75
2020-03-21 18:00:00 10.9 10 Sur 20 Sur 0 -- -- 74
2020-03-21 17:00:00 11.6 14 Sur 22 Sur 0 -- -- 77
2020-03-21 16:00:00 10.5 4 Sudeste 21 Sudeste 0 -- -- 80
2020-03-21 15:00:00 8.9 9 Sudeste 18 Sudeste 0 -- -- 84
2020-03-21 14:00:00 8.5 9 Sur 13 Sur 0 -- -- 89
2020-03-21 13:00:00 8.7 12 Sur 19 Sur 0 -- -- 88
2020-03-21 12:00:00 8.9 7 Sudoeste 13 Sur 0 -- -- 87
2020-03-21 11:00:00 7.9 4 Sudeste 17 Sur 0 -- -- 91
2020-03-21 10:00:00 7.7 4 Sur 19 Sudeste 0 -- -- 91
2020-03-21 09:00:00 7.9 5 Sudeste 17 Sudeste 0 -- -- 89
2020-03-21 08:00:00 7.7 5 Sudeste 23 Sudeste 0 -- -- 90
2020-03-21 07:00:00 7.7 6 Este 25 Sudeste 0 -- -- 89
2020-03-21 06:00:00 8 8 Sudeste 19 Sudeste 0 -- -- 86
2020-03-21 05:00:00 7.9 4 Nordeste 13 Norte 0 -- -- 89
2020-03-21 04:00:00 7.8 9 Norte 14 Norte 0.2 -- -- 91
2020-03-21 03:00:00 7.3 8 Nordeste 12 Nordeste 0 -- -- 96
2020-03-21 02:00:00 7.9 3 Sur 7 Sur 0 -- -- 91
2020-03-21 01:00:00 7.6 2 Nordeste 10 Nordeste 0 -- -- 94
2020-03-21 00:00:00 7.8 6 Nordeste 10 Norte 0 -- -- 91
2020-03-20 23:00:00 8.1 7 Norte 15 Sur 0 -- -- 85
2020-03-20 22:00:00 8.2 9 Sudeste 25 Sur 0 -- -- 85
2020-03-20 21:00:00 8.3 16 Sudeste 27 Sur 0 -- -- 84
2020-03-20 20:00:00 8.8 3 Norte 9 Norte 0 -- -- 84
2020-03-20 19:00:00 9.2 4 Sudoeste 31 Sur 0 -- -- 84
2020-03-20 18:00:00 9.5 20 Sur 34 Sur 0 -- -- 84
2020-03-20 17:00:00 9.8 14 Sudeste 34 Sur 0 -- -- 83
2020-03-20 16:00:00 10.2 23 Sudeste 39 Sudeste 0 -- -- 83
2020-03-20 15:00:00 9.8 12 Sudeste 18 Sudeste 0 -- -- 85
2020-03-20 14:00:00 10.1 10 Sudeste 29 Sudoeste 0 -- -- 86
2020-03-20 13:00:00 11.1 9 Sur 21 Sudeste 0 -- -- 81
2020-03-20 12:00:00 11.1 16 Sudeste 34 Sur 0 -- -- 81
2020-03-20 11:00:00 9.9 3 Noroeste 18 Sur 0 -- -- 96
2020-03-20 10:00:00 7.8 4 Oeste 15 Sudoeste 0 -- -- 100
2020-03-20 09:00:00 7.3 7 Nordeste 12 Nordeste 0.2 -- -- 100
2020-03-20 08:00:00 7.5 4 Nordeste 11 Norte 0.4 -- -- 100
2020-03-20 07:00:00 7.5 6 Nordeste 9 Norte 0.6 -- -- 98
2020-03-20 06:00:00 8.2 4 Norte 20 Sudeste 0.6 -- -- 93
2020-03-20 05:00:00 9.3 8 Sudeste 18 Sudeste 0 -- -- 84
2020-03-20 04:00:00 9.3 10 Sudeste 17 Este 0 -- -- 83
2020-03-20 03:00:00 8.9 6 Sur 17 Sudeste 0 -- -- 86
2020-03-20 02:00:00 8.6 2 Norte 5 Norte 0 -- -- 93
2020-03-20 01:00:00 8 0 Calma 8 Oeste 0.2 -- -- 95
2020-03-20 00:00:00 8 0 Calma 6 Este 0 -- -- 93
2020-03-19 23:00:00 8.5 0 Calma 6 Oeste 0 -- -- 93
2020-03-19 22:00:00 8.9 2 Sudoeste 15 Oeste 0.2 -- -- 87
2020-03-19 21:00:00 9.2 4 Sudoeste 12 Oeste 0.2 -- -- 91
2020-03-19 20:00:00 10.6 8 Sur 20 Sudeste 2.4 -- -- 82
2020-03-19 19:00:00 11.7 0 Calma 14 Nordeste 0 -- -- 79
2020-03-19 18:00:00 11.6 10 Nordeste 16 Norte 0 -- -- 78
2020-03-19 17:00:00 14.9 3 Este 18 Este 0 -- -- 63
2020-03-19 16:00:00 16.3 8 Norte 18 Noroeste 0 -- -- 54
2020-03-19 15:00:00 16.5 4 Nordeste 19 Norte 0 -- -- 52
2020-03-19 14:00:00 19 5 Oeste 23 Oeste 0 -- -- 43
2020-03-19 13:00:00 18.6 7 Oeste 29 Sur 0 -- -- 45
2020-03-19 12:00:00 16.8 19 Sudoeste 37 Sur 0 -- -- 54
2020-03-19 11:00:00 15.6 17 Sur 23 Sur 0 -- -- 57
2020-03-19 10:00:00 13.1 4 Sur 9 Sur 0 -- -- 66
2020-03-19 09:00:00 10.6 3 Noroeste 15 Sudoeste 0 -- -- 71
2020-03-19 08:00:00 8.2 7 Sur 23 Sur 0 -- -- 83
2020-03-19 07:00:00 5.6 3 Sudoeste 9 Sudoeste 0 -- -- 93
2020-03-19 06:00:00 5.9 2 Sur 5 Sudoeste 0 -- -- 92
2020-03-19 05:00:00 6.5 2 Oeste 5 Sudoeste 0 -- -- 91
2020-03-19 04:00:00 7.4 0 Calma 5 Sudoeste 0 -- -- 86
2020-03-19 03:00:00 7.5 0 Calma 5 Sudoeste 0 -- -- 85
2020-03-19 02:00:00 7.7 0 Calma 4 Sudoeste 0 -- -- 85
2020-03-19 01:00:00 7.9 0 Calma 5 Sur 0 -- -- 85
2020-03-19 00:00:00 8.3 0 Calma 8 Sudoeste 0 -- -- 84
2020-03-18 23:00:00 8.8 3 Sudoeste 8 Sur 0 -- -- 83
2020-03-18 22:00:00 10.4 0 Calma 5 Este 0 -- -- 74
2020-03-18 21:00:00 11.4 2 Oeste 14 Sudoeste 0 -- -- 75
2020-03-18 20:00:00 13.7 5 Sur 9 Sur 0 -- -- 65
2020-03-18 19:00:00 15.7 3 Oeste 9 Oeste 0 -- -- 63
2020-03-18 18:00:00 17.1 3 Noroeste 12 Noroeste 0 -- -- 58
2020-03-18 17:00:00 18.5 5 Noroeste 12 Noroeste 0 -- -- 51
2020-03-18 16:00:00 18.2 6 Nordeste 14 Nordeste 0 -- -- 49
2020-03-18 15:00:00 17.4 8 Nordeste 17 Nordeste 0 -- -- 53
2020-03-18 14:00:00 16.3 7 Nordeste 14 Nordeste 0 -- -- 61
2020-03-18 13:00:00 15 6 Nordeste 12 Nordeste 0 -- -- 67
2020-03-18 12:00:00 12.7 5 Norte 8 Norte 0 -- -- 75
2020-03-18 11:00:00 9.6 0 Calma 4 Sur 0 -- -- 86
2020-03-18 10:00:00 5.9 0 Calma 5 Sudoeste 0 -- -- 97
2020-03-18 09:00:00 2.8 3 Sudoeste 6 Sudoeste 0 -- -- 100
2020-03-18 08:00:00 1.9 2 Sur 6 Oeste 0 -- -- 99
2020-03-18 07:00:00 2.2 2 Sudoeste 6 Sudoeste 0 -- -- 99
2020-03-18 06:00:00 2.6 2 Sudoeste 4 Sudoeste 0 -- -- 98
2020-03-18 05:00:00 2.9 2 Sur 5 Sur 0 -- -- 96
2020-03-18 04:00:00 3.4 2 Sur 6 Sur 0 -- -- 95
2020-03-18 03:00:00 4.3 2 Oeste 9 Norte 0 -- -- 92
2020-03-18 02:00:00 4.3 4 Noroeste 12 Oeste 0 -- -- 94
2020-03-18 01:00:00 5 3 Sudoeste 9 Oeste 0 -- -- 91
2020-03-18 00:00:00 5.8 0 Calma 5 Este 0 -- -- 88
2020-03-17 23:00:00 7.2 2 Oeste 6 Sudeste 0 -- -- 82
2020-03-17 22:00:00 8.8 3 Este 13 Sudeste 0 -- -- 75
2020-03-17 21:00:00 9.8 4 Este 15 Sudeste 0 -- -- 69
2020-03-17 20:00:00 11.3 6 Sudeste 17 Este 0 -- -- 66
2020-03-17 19:00:00 13 4 Este 23 Nordeste 0 -- -- 60
2020-03-17 18:00:00 13.5 9 Nordeste 24 Nordeste 0 -- -- 60
2020-03-17 17:00:00 14.3 11 Nordeste 26 Este 0 -- -- 59
2020-03-17 16:00:00 14.9 8 Nordeste 28 Nordeste 0 -- -- 58
2020-03-17 15:00:00 13.1 13 Nordeste 26 Nordeste 0 -- -- 63
2020-03-17 14:00:00 12.8 7 Norte 28 Norte 0 -- -- 64
2020-03-17 13:00:00 13.1 13 Nordeste 30 Norte 0 -- -- 61
2020-03-17 12:00:00 12.4 7 Norte 18 Nordeste 0 -- -- 64
2020-03-17 11:00:00 10.4 5 Norte 11 Norte 0 -- -- 67
2020-03-17 10:00:00 6.4 5 Norte 13 Norte 0 -- -- 71
2020-03-17 09:00:00 3 5 Nordeste 12 Sudeste 0 -- -- 84
2020-03-17 08:00:00 1.6 0 Calma 6 Nordeste 0 -- -- 85
2020-03-17 07:00:00 1.1 2 Sudeste 6 Sudeste 0 -- -- 84
2020-03-17 06:00:00 1.2 0 Calma 8 Norte 0 -- -- 81
2020-03-17 05:00:00 1.2 2 Noroeste 6 Sudeste 0 -- -- 83
2020-03-17 04:00:00 1.2 2 Noroeste 6 Noroeste 0 -- -- 84
2020-03-17 03:00:00 1.6 0 Calma 6 Norte 0 -- -- 84
2020-03-17 02:00:00 1.3 5 Sudeste 12 Nordeste 0 -- -- 90
2020-03-17 01:00:00 0.9 6 Nordeste 15 Nordeste 0 -- -- 96
2020-03-17 00:00:00 0.4 3 Nordeste 5 Nordeste 0 -- -- 98
2020-03-16 23:00:00 0.6 3 Sur 10 Norte 0 -- -- 96
2020-03-16 22:00:00 1.4 3 Este 16 Noroeste 0 -- -- 94
2020-03-16 21:00:00 1.8 3 Nordeste 19 Nordeste 0 -- -- 92
2020-03-16 20:00:00 2.6 9 Norte 29 Nordeste 0 -- -- 89
2020-03-16 19:00:00 3.9 7 Norte 39 Norte 0 -- -- 85
2020-03-16 18:00:00 5.4 10 Norte 34 Noroeste 0 -- -- 82
2020-03-16 17:00:00 5 13 Noroeste 32 Norte 0 -- -- 88
2020-03-16 16:00:00 4.5 11 Norte 33 Noroeste 0.2 -- -- 90
2020-03-16 15:00:00 4.3 13 Norte 37 Norte 0 -- -- 96
2020-03-16 14:00:00 3.4 14 Norte 31 Norte 0.2 -- -- 99
2020-03-16 13:00:00 3.2 10 Norte 31 Norte 1.6 -- -- 100
2020-03-16 12:00:00 1.9 10 Norte 28 Norte 3 -- -- 100
2020-03-16 11:00:00 1.3 9 Norte 26 Norte 2.6 -- -- 100
2020-03-16 10:00:00 0.4 3 Norte 18 Norte 0 -- -- 100
2020-03-16 09:00:00 0 0 Calma -- -- 0 -- -- 100
2020-03-16 08:00:00 -0.2 0 Calma -- -- 0 -- -- 100
2020-03-16 07:00:00 -0.2 0 Calma -- -- 0 -- -- 100
2020-03-16 06:00:00 -0.1 0 Calma -- -- 0 -- -- 100
2020-03-16 05:00:00 -0.2 0 Calma -- -- 0 -- -- 100
2020-03-16 04:00:00 -0.1 0 Calma -- -- 0 -- -- 100
2020-03-16 03:00:00 0 0 Calma -- -- 0 -- -- 100
2020-03-16 02:00:00 0.1 0 Calma -- -- 0 -- -- 100
2020-03-16 01:00:00 0 0 Calma -- -- 0 -- -- 99
2020-03-16 00:00:00 0.1 0 Calma -- -- 0 -- -- 100
2020-03-15 23:00:00 0.1 0 Calma 0 Calma 0.2 -- -- 99
2020-03-15 22:00:00 0.2 0 Calma -- -- 0 -- -- 99
2020-03-15 21:00:00 0.2 0 Calma -- -- 0 -- -- 98
2020-03-15 20:00:00 0.2 0 Calma -- -- 0 -- -- 98
2020-03-15 19:00:00 0.1 0 Calma 5 Norte 0 -- -- 98
2020-03-15 18:00:00 0.4 6 Norte 26 Noroeste 0.6 -- -- 97
2020-03-15 17:00:00 2.2 6 Norte 23 Norte 1 -- -- 94
2020-03-15 16:00:00 4 7 Norte 31 Noroeste 2.8 -- -- 94
2020-03-15 15:00:00 8.3 14 Noroeste 37 Oeste 0 -- -- 79
2020-03-15 14:00:00 12.2 10 Sudoeste 32 Sudoeste 0 -- -- 59
2020-03-15 13:00:00 11 15 Sudoeste 27 Oeste 0 -- -- 59
2020-03-15 12:00:00 8.9 10 Oeste 30 Oeste 0 -- -- 66
2020-03-15 11:00:00 7.4 9 Oeste 25 Oeste 0 -- -- 75
2020-03-15 10:00:00 7.8 6 Norte 12 Norte 0 -- -- 64
2020-03-15 09:00:00 3.8 2 Sudoeste 7 Sudoeste 0 -- -- 63
2020-03-15 08:00:00 4 3 Este 17 Norte 0 -- -- 59
2020-03-15 07:00:00 4.9 3 Sudoeste 18 Sudoeste 0 -- -- 55
2020-03-15 06:00:00 5 7 Sudoeste 18 Sudoeste 0 -- -- 54
2020-03-15 05:00:00 3.3 5 Sur 10 Sudoeste 0 -- -- 42
2020-03-15 04:00:00 3 5 Sudoeste 9 Sudoeste 0 -- -- 61
2020-03-15 03:00:00 2.8 4 Sudoeste 10 Sudoeste 0 -- -- 55
2020-03-15 02:00:00 2.5 5 Sudoeste 9 Sudoeste 0 -- -- 57
2020-03-15 01:00:00 2.9 5 Sudoeste 9 Sudoeste 0 -- -- 60
2020-03-15 00:00:00 3.7 5 Sudoeste 11 Sudoeste 0 -- -- 59
2020-03-14 23:00:00 4.8 5 Sudoeste 11 Sudoeste 0 -- -- 60
2020-03-14 22:00:00 6.4 4 Sudoeste 10 Sur 0 -- -- 58
2020-03-14 21:00:00 8.3 8 Sur 13 Sur 0 -- -- 46
2020-03-14 20:00:00 12 6 Sur 12 Sudeste 0 -- -- 44
2020-03-14 19:00:00 14.9 6 Noroeste 15 Oeste 0 -- -- 42
2020-03-14 18:00:00 17.2 7 Oeste 21 Oeste 0 -- -- 22
2020-03-14 17:00:00 18.5 6 Oeste 22 Oeste 0 -- -- 25
2020-03-14 16:00:00 19.2 7 Noroeste 19 Noroeste 0 -- -- 28
2020-03-14 15:00:00 19.5 6 Oeste 15 Sudoeste 0 -- -- 22
2020-03-14 14:00:00 17 5 Norte 12 Norte 0 -- -- 34
2020-03-14 13:00:00 14.4 6 Norte 14 Nordeste 0 -- -- 35
2020-03-14 12:00:00 10 11 Norte 16 Norte 0 -- -- 62
2020-03-14 11:00:00 7.8 7 Nordeste 10 Norte 0 -- -- 59
2020-03-14 10:00:00 4.8 0 Calma 6 Oeste 0 -- -- 65
2020-03-14 09:00:00 0.7 3 Sudoeste -- -- 0 -- -- 88
2020-03-14 08:00:00 -1 3 Sudoeste 10 Sudoeste 0 -- -- 89
2020-03-14 07:00:00 -1 4 Sudoeste 9 Oeste 0 -- -- 91
2020-03-14 06:00:00 -0.8 4 Sudoeste 9 Sudoeste 0 -- -- 94
2020-03-14 05:00:00 -0.5 3 Sudoeste 8 Sudoeste 0 -- -- 94
2020-03-14 04:00:00 0.2 3 Sudoeste 10 Sudoeste 0 -- -- 96
2020-03-14 03:00:00 1.1 4 Sudoeste 12 Sudoeste 0 -- -- 98
2020-03-14 02:00:00 2 4 Sudoeste 9 Sudoeste 0 -- -- 97
2020-03-14 01:00:00 2.9 4 Sur 9 Sudoeste 0 -- -- 96
2020-03-14 00:00:00 4.2 0 Calma 10 Sur 0 -- -- 98
2020-03-13 23:00:00 4.3 6 Sur 10 Sur 0 -- -- 96
2020-03-13 22:00:00 4.7 0 Calma 9 Sur 0 -- -- 95
2020-03-13 21:00:00 5.9 2 Sur 5 Norte 0 -- -- 90
2020-03-13 20:00:00 7.6 4 Norte 11 Norte 0 -- -- 87
2020-03-13 19:00:00 9.7 3 Sudoeste 9 Sudoeste 0 -- -- 81
2020-03-13 18:00:00 10.3 4 Noroeste 17 Nordeste 0 -- -- 79
2020-03-13 17:00:00 11.8 11 Nordeste 21 Nordeste 0 -- -- 73
2020-03-13 16:00:00 13 4 Norte 12 Noroeste 0 -- -- 73
2020-03-13 15:00:00 10.8 4 Norte 12 Norte 0 -- -- 81
2020-03-13 14:00:00 9 7 Nordeste 15 Nordeste 0 -- -- 88
2020-03-13 13:00:00 9.3 2 Oeste 7 Norte 0 -- -- 90
2020-03-13 12:00:00 7.8 0 Calma 8 Nordeste 0 -- -- 99
2020-03-13 11:00:00 6.6 3 Sur 8 Sur 0 -- -- 100
2020-03-13 10:00:00 5.8 0 Calma 6 Sur 0 -- -- 100
2020-03-13 09:00:00 5.4 0 Calma 6 Sur 0 -- -- 100
2020-03-13 08:00:00 5.1 5 Sudeste 8 Sur 0 -- -- 100
2020-03-13 07:00:00 5 0 Calma 4 Sudeste 0 -- -- 100
2020-03-13 06:00:00 4.9 0 Calma 6 Sur 0 -- -- 100
2020-03-13 05:00:00 4.7 2 Sur 6 Sudeste 0 -- -- 100
2020-03-13 04:00:00 5 0 Calma 5 Sudoeste 0 -- -- 100
2020-03-13 03:00:00 5.3 0 Calma 4 Norte 0 -- -- 100
2020-03-13 02:00:00 5.3 2 Nordeste 8 Norte 0 -- -- 100
2020-03-13 01:00:00 5.9 0 Calma 7 Norte 0 -- -- 100
2020-03-13 00:00:00 6.2 5 Norte 7 Norte 0 -- -- 98
2020-03-12 23:00:00 6.9 2 Noroeste 4 Noroeste 0 -- -- 96
2020-03-12 22:00:00 6.7 2 Norte 7 Nordeste 0 -- -- 97
2020-03-12 21:00:00 7 3 Este 10 Nordeste 0 -- -- 96
2020-03-12 20:00:00 7.9 2 Sur 17 Norte 0 -- -- 93
2020-03-12 19:00:00 9.1 6 Noroeste 17 Noroeste 0 -- -- 87
2020-03-12 18:00:00 10.5 7 Norte 18 Noroeste 0 -- -- 83
2020-03-12 17:00:00 11.8 6 Noroeste 15 Norte 0 -- -- 78
2020-03-12 16:00:00 12.1 5 Norte 14 Noroeste 0 -- -- 75
2020-03-12 15:00:00 11.4 4 Norte 11 Norte 0 -- -- 79
2020-03-12 14:00:00 10.7 3 Norte 13 Noroeste 0 -- -- 83
2020-03-12 13:00:00 10.9 3 Oeste 8 Oeste 0 -- -- 84
2020-03-12 12:00:00 9 3 Sudeste 8 Sur 0 -- -- 92
2020-03-12 11:00:00 7.4 3 Sudoeste 7 Sudoeste 0 -- -- 98
2020-03-12 10:00:00 6.2 0 Calma 8 Sur 0 -- -- 99
2020-03-12 09:00:00 5.6 0 Calma 13 Sur 0 -- -- 99
2020-03-12 08:00:00 5.4 7 Sur 11 Sur 0 -- -- 98
2020-03-12 07:00:00 5.3 2 Oeste 4 Oeste 0 -- -- 94
2020-03-12 06:00:00 5.3 3 Sur 4 Sur 0 -- -- 92
2020-03-12 05:00:00 5.6 2 Nordeste 5 Nordeste 0 -- -- 96
2020-03-12 04:00:00 6.4 0 Calma 9 Sudeste 0 -- -- 87
2020-03-12 03:00:00 7 0 Calma 8 Nordeste 0 -- -- 84
2020-03-12 02:00:00 7.4 2 Oeste 6 Sudoeste 0 -- -- 80
2020-03-12 01:00:00 8.1 3 Sudoeste 6 Sudoeste 0 -- -- 80
2020-03-12 00:00:00 8.9 2 Noroeste 11 Oeste 0 -- -- 78
2020-03-11 23:00:00 9.6 4 Oeste 14 Sudoeste 0 -- -- 71
2020-03-11 22:00:00 11.1 5 Oeste 12 Oeste 0 -- -- 72
2020-03-11 21:00:00 12.9 5 Sur 9 Sur 0 -- -- 65
2020-03-11 20:00:00 14.8 5 Sur 14 Oeste 0 -- -- 60
2020-03-11 19:00:00 17.4 6 Oeste 21 Oeste 0 -- -- 53
2020-03-11 18:00:00 19.2 10 Oeste 23 Oeste 0 -- -- 51
2020-03-11 17:00:00 21.4 12 Oeste 33 Sudoeste 0 -- -- 44
2020-03-11 16:00:00 22.2 14 Sudoeste 30 Sudoeste 0 -- -- 40
2020-03-11 15:00:00 21.6 16 Sudoeste 31 Oeste 0 -- -- 36
2020-03-11 14:00:00 21.6 19 Sudoeste 33 Sudoeste 0 -- -- 37
2020-03-11 13:00:00 20.6 19 Sudoeste 33 Sur 0 -- -- 38
2020-03-11 12:00:00 17.3 5 Oeste 14 Sudoeste 0 -- -- 43
2020-03-11 11:00:00 12.1 11 Norte 14 Nordeste 0 -- -- 66
2020-03-11 10:00:00 9.9 0 Calma 6 Oeste 0 -- -- 76
2020-03-11 09:00:00 5.4 2 Sudoeste 9 Sudoeste 0 -- -- 95
2020-03-11 08:00:00 3.9 3 Sudoeste 8 Sudoeste 0 -- -- 97
2020-03-11 07:00:00 3.7 4 Sudoeste 8 Sudoeste 0 -- -- 94
2020-03-11 06:00:00 3.8 3 Sudoeste 8 Sudoeste 0 -- -- 91
2020-03-11 05:00:00 4 4 Sudoeste 9 Oeste 0 -- -- 89
2020-03-11 04:00:00 4.3 4 Sudoeste 15 Sudoeste 0 -- -- 84
2020-03-11 03:00:00 4.4 5 Sudoeste 9 Oeste 0 -- -- 84
2020-03-11 02:00:00 5 4 Oeste 7 Oeste 0 -- -- 83
2020-03-11 01:00:00 6 2 Sudoeste 5 Sudoeste 0 -- -- 81
2020-03-11 00:00:00 6.7 4 Sudoeste 9 Oeste 0 -- -- 79
2020-03-10 23:00:00 7.5 6 Sudoeste 8 Sur 0 -- -- 73
2020-03-10 22:00:00 9.2 0 Calma 9 Sudoeste 0 -- -- 74
2020-03-10 21:00:00 10.2 9 Sur 13 Sur 0 -- -- 69
2020-03-10 20:00:00 12.7 2 Sudeste 13 Sudoeste 0 -- -- 71
2020-03-10 19:00:00 15.7 6 Oeste 19 Oeste 0 -- -- 59
2020-03-10 18:00:00 18.2 9 Oeste 21 Oeste 0 -- -- 50
2020-03-10 17:00:00 20.1 9 Oeste 18 Oeste 0 -- -- 41
2020-03-10 16:00:00 20.3 11 Oeste 28 Sudoeste 0 -- -- 33
2020-03-10 15:00:00 20.8 11 Oeste 25 Sudoeste 0 -- -- 24
2020-03-10 14:00:00 21.1 6 Oeste 19 Oeste 0 -- -- 21
2020-03-10 13:00:00 19.7 9 Sudoeste 16 Sudoeste 0 -- -- 17
2020-03-10 12:00:00 16.5 5 Sudoeste 10 Nordeste 0 -- -- 23
2020-03-10 11:00:00 12.6 4 Norte 8 Norte 0 -- -- 30
2020-03-10 10:00:00 7.1 0 Calma 5 Oeste 0 -- -- 58
2020-03-10 09:00:00 3.4 4 Sudoeste 12 Sudoeste 0 -- -- 68
2020-03-10 08:00:00 2.5 5 Sudoeste 10 Sudoeste 0 -- -- 76
2020-03-10 07:00:00 2.5 6 Sudoeste 8 Sudoeste 0 -- -- 74
2020-03-10 06:00:00 2.8 3 Sudoeste 7 Sudoeste 0 -- -- 73
2020-03-10 05:00:00 3.1 7 Sudoeste 17 Oeste 0 -- -- 68
2020-03-10 04:00:00 2.9 4 Sudoeste 12 Oeste 0 -- -- 69
2020-03-10 03:00:00 3.1 6 Sudoeste 11 Sudoeste 0 -- -- 77
2020-03-10 02:00:00 3.3 3 Sudoeste 11 Sudoeste 0 -- -- 78
2020-03-10 01:00:00 3.6 5 Sudoeste 10 Sudoeste 0 -- -- 82
2020-03-10 00:00:00 4.3 3 Sudoeste 6 Sudoeste 0 -- -- 83
2020-03-09 23:00:00 5.1 3 Sur 5 Sur 0 -- -- 74
2020-03-09 22:00:00 6.2 0 Calma 10 Sur 0 -- -- 77
2020-03-09 21:00:00 7.2 4 Sur 9 Sur 0 -- -- 71
2020-03-09 20:00:00 8.7 3 Nordeste 7 Nordeste 0 -- -- 62
2020-03-09 19:00:00 10.6 3 Norte 10 Noroeste 0 -- -- 56
2020-03-09 18:00:00 12.1 3 Norte 13 Norte 0 -- -- 50
2020-03-09 17:00:00 12.7 3 Nordeste 15 Norte 0 -- -- 50
2020-03-09 16:00:00 12.6 7 Noroeste 21 Noroeste 0 -- -- 45
2020-03-09 15:00:00 12 3 Nordeste 21 Norte 0 -- -- 50
2020-03-09 14:00:00 12.6 9 Noroeste 19 Noroeste 0 -- -- 45
2020-03-09 13:00:00 11 6 Sur 11 Sur 0 -- -- 51
2020-03-09 12:00:00 9.5 3 Noroeste 9 Oeste 0 -- -- 63
2020-03-09 11:00:00 7 4 Sudoeste 10 Sudeste 0 -- -- 77
2020-03-09 10:00:00 4.4 5 Sur 8 Sur 0 -- -- 92
2020-03-09 09:00:00 1.4 3 Sudeste 5 Sudoeste 0 -- -- 98
2020-03-09 08:00:00 1 2 Sur 6 Sur 0 -- -- 96
2020-03-09 07:00:00 1.2 4 Sur 12 Sur 0 -- -- 94
2020-03-09 06:00:00 1.9 4 Sur 7 Sur 0 -- -- 92
2020-03-09 05:00:00 3.3 2 Norte 16 Noroeste 0 -- -- 90
2020-03-09 04:00:00 4.2 4 Noroeste 12 Noroeste 0 -- -- 93
2020-03-09 03:00:00 4.4 3 Noroeste 13 Norte 0 -- -- 92
2020-03-09 02:00:00 4.5 0 Calma 8 Noroeste 0 -- -- 92
2020-03-09 01:00:00 4.6 3 Norte 7 Norte 0 -- -- 92
2020-03-09 00:00:00 4.7 0 Calma 14 Oeste 0 -- -- 93
2020-03-08 23:00:00 5.2 4 Noroeste 14 Oeste 0 -- -- 89
2020-03-08 22:00:00 5.7 3 Oeste 16 Noroeste 0 -- -- 90
2020-03-08 21:00:00 6.1 9 Noroeste 26 Noroeste 0 -- -- 88
2020-03-08 20:00:00 7 9 Oeste 26 Oeste 0 -- -- 88
2020-03-08 19:00:00 8.1 10 Oeste 35 Noroeste 0 -- -- 83
2020-03-08 18:00:00 10.1 10 Oeste 32 Oeste 0 -- -- 77
2020-03-08 17:00:00 12 16 Oeste 41 Sudoeste 0 -- -- 73
2020-03-08 16:00:00 11.7 11 Oeste 39 Oeste 0 -- -- 77
2020-03-08 15:00:00 11.7 14 Oeste 33 Sudoeste 0 -- -- 80
2020-03-08 14:00:00 10.4 11 Oeste 32 Oeste 0 -- -- 85
2020-03-08 13:00:00 10.3 8 Oeste 24 Sudoeste 0 -- -- 89
2020-03-08 12:00:00 9 13 Oeste 27 Oeste 0 -- -- 91
2020-03-08 11:00:00 7.4 2 Oeste 10 Sur 0 -- -- 95
2020-03-08 10:00:00 6 0 Calma 10 Sur 0 -- -- 96
2020-03-08 09:00:00 4.5 3 Nordeste 14 Sudeste 0 -- -- 96
2020-03-08 08:00:00 3.1 4 Sudeste 10 Oeste 0 -- -- 97
2020-03-08 07:00:00 2.6 8 Sudoeste 17 Sur 0 -- -- 96
2020-03-08 06:00:00 1.8 5 Sudeste 11 Sur 0 -- -- 97
2020-03-08 05:00:00 1.4 2 Sudoeste 9 Sur 0 -- -- 97
2020-03-08 04:00:00 2.2 3 Nordeste 18 Sudeste 0 -- -- 98
2020-03-08 03:00:00 2.7 6 Este 12 Sur 0 -- -- 99
2020-03-08 02:00:00 3.5 3 Este 21 Sur 0 -- -- 98
2020-03-08 01:00:00 4 12 Sudeste 19 Sudeste 0 -- -- 96
2020-03-08 00:00:00 3.5 0 Calma 10 Oeste 0 -- -- 94
2020-03-07 23:00:00 3.4 2 Norte 9 Noroeste 0 -- -- 96
2020-03-07 22:00:00 4.4 2 Sur 6 Sur 0 -- -- 89
2020-03-07 21:00:00 6.2 5 Sur 10 Sur 0 -- -- 83
2020-03-07 20:00:00 8.1 3 Sudoeste 13 Oeste 0 -- -- 75
2020-03-07 19:00:00 10.6 3 Sudoeste 18 Oeste 0 -- -- 68
2020-03-07 18:00:00 13.8 12 Oeste 18 Oeste 0 -- -- 55
2020-03-07 17:00:00 13.6 6 Oeste 18 Oeste 0 -- -- 64
2020-03-07 16:00:00 14.1 5 Oeste 13 Oeste 0 -- -- 64
2020-03-07 15:00:00 13.2 5 Oeste 13 Oeste 0 -- -- 68
2020-03-07 14:00:00 12.3 5 Oeste 11 Sudoeste 0 -- -- 70
2020-03-07 13:00:00 10.1 3 Sudoeste 8 Oeste 0 -- -- 71
2020-03-07 12:00:00 8 4 Noroeste 9 Norte 0 -- -- 80
2020-03-07 11:00:00 5.3 3 Nordeste 12 Norte 0 -- -- 89
2020-03-07 10:00:00 4.5 3 Nordeste 9 Norte 0 -- -- 100
2020-03-07 09:00:00 3.9 0 Calma 9 Norte 0 -- -- 100
2020-03-07 08:00:00 3.8 4 Nordeste 15 Norte 0.2 -- -- 100
2020-03-07 07:00:00 4 3 Norte 14 Norte 0.4 -- -- 100
2020-03-07 06:00:00 4.2 3 Norte 8 Noroeste 0.2 -- -- 100
2020-03-07 05:00:00 4.1 3 Norte 12 Noroeste 0 -- -- 100
2020-03-07 04:00:00 4 2 Norte 13 Norte 0 -- -- 100
2020-03-07 03:00:00 3.9 5 Norte 12 Noroeste 0.6 -- -- 100
2020-03-07 02:00:00 3.6 3 Norte 9 Norte 0.2 -- -- 100
2020-03-07 01:00:00 3.4 2 Norte 10 Norte 0.2 -- -- 100
2020-03-07 00:00:00 3.1 4 Norte 10 Noroeste 0.4 -- -- 100
2020-03-06 23:00:00 2.7 0 Calma 12 Norte 0.2 -- -- 100
2020-03-06 22:00:00 2.8 4 Norte 16 Norte 0 -- -- 97
2020-03-06 21:00:00 3.2 5 Norte 22 Norte 0 -- -- 90
2020-03-06 20:00:00 3.6 4 Noroeste 20 Norte 0 -- -- 79
2020-03-06 19:00:00 4.3 8 Norte 32 Norte 0 -- -- 67
2020-03-06 18:00:00 5.8 15 Noroeste 40 Norte 0 -- -- 68
2020-03-06 17:00:00 5.9 16 Norte 40 Norte 0 -- -- 73
2020-03-06 16:00:00 5.3 9 Norte 39 Noroeste 0 -- -- 79
2020-03-06 15:00:00 5.5 21 Noroeste 43 Noroeste 0 -- -- 73
2020-03-06 14:00:00 4.7 23 Norte 45 Noroeste 0 -- -- 80
2020-03-06 13:00:00 3.2 12 Noroeste 47 Norte 0 -- -- 97
2020-03-06 12:00:00 2.5 19 Noroeste 43 Norte 0.4 -- -- 97
2020-03-06 11:00:00 1.8 13 Norte 48 Noroeste 0.2 -- -- 99
2020-03-06 10:00:00 1.4 19 Noroeste 46 Noroeste 0.2 -- -- 98
2020-03-06 09:00:00 1.3 16 Noroeste 42 Noroeste 0.2 -- -- 99
2020-03-06 08:00:00 1.3 16 Noroeste 46 Oeste 0.2 -- -- 98
2020-03-06 07:00:00 1.6 20 Noroeste 48 Noroeste 0.2 -- -- 98
2020-03-06 06:00:00 1.3 11 Noroeste 30 Noroeste 0.4 -- -- 99
2020-03-06 05:00:00 1.6 14 Noroeste 43 Oeste 0 -- -- 98
2020-03-06 04:00:00 1.5 23 Noroeste 46 Oeste 0.8 -- -- 97
2020-03-06 03:00:00 2.3 10 Oeste 41 Oeste 0.2 -- -- 97
2020-03-06 02:00:00 2.5 14 Noroeste 32 Noroeste 1.2 -- -- 99
2020-03-06 01:00:00 2.6 14 Noroeste 49 Noroeste 2.2 -- -- 96
2020-03-06 00:00:00 3.5 20 Sudoeste 41 Oeste 1 -- -- 100
2020-03-05 23:00:00 3.2 17 Sudoeste 37 Sudoeste 0.6 -- -- 97
2020-03-05 22:00:00 3.5 12 Oeste 30 Oeste 0.2 -- -- 99
2020-03-05 21:00:00 3.8 7 Oeste 31 Oeste 0.4 -- -- 99
2020-03-05 20:00:00 4 9 Oeste 27 Oeste 0.2 -- -- 97
2020-03-05 19:00:00 4.1 6 Oeste 30 Oeste 0.2 -- -- 97
2020-03-05 18:00:00 4.5 9 Oeste 38 Noroeste 1 -- -- 95
2020-03-05 17:00:00 5.7 7 Oeste 39 Noroeste 0.4 -- -- 97
2020-03-05 16:00:00 5.5 12 Noroeste 33 Noroeste 0.4 -- -- 95
2020-03-05 15:00:00 7.3 11 Noroeste 41 Noroeste 0 -- -- 90
2020-03-05 14:00:00 6.5 22 Noroeste 38 Noroeste 0.2 -- -- 94
2020-03-05 13:00:00 5.6 14 Noroeste 38 Oeste 2.6 -- -- 96
2020-03-05 12:00:00 5.9 13 Oeste 54 Sudoeste 0.4 -- -- 100
2020-03-05 11:00:00 4.8 12 Oeste 40 Sudoeste 0.4 -- -- 99
2020-03-05 10:00:00 4.4 12 Oeste 60 Oeste 0.4 -- -- 98
2020-03-05 09:00:00 4.5 20 Oeste 57 Oeste 0.2 -- -- 99
2020-03-05 08:00:00 4.5 21 Sudoeste 55 Oeste 0.4 -- -- 97
2020-03-05 07:00:00 4.6 23 Oeste 62 Oeste 3.2 -- -- 98
2020-03-05 06:00:00 6.7 22 Oeste 54 Oeste 6 -- -- 98
2020-03-05 05:00:00 8.9 34 Sudoeste 91 Sudoeste 4.2 -- -- 96
2020-03-05 04:00:00 8.9 55 Sur 88 Sudoeste 1.8 -- -- 96
2020-03-05 03:00:00 9.2 56 Sudoeste 86 Sudoeste 0.4 -- -- 94
2020-03-05 02:00:00 9.4 49 Sudoeste 77 Sudoeste 0 -- -- 93
2020-03-05 01:00:00 9.7 40 Sudoeste 78 Sudoeste 0 -- -- 90
2020-03-05 00:00:00 9.5 36 Sudoeste 66 Sudoeste 0.4 -- -- 95
2020-03-04 23:00:00 9.7 13 Sudoeste 37 Sudoeste 1.6 -- -- 98
2020-03-04 22:00:00 9.9 15 Sudoeste 43 Sur 0.4 -- -- 97
2020-03-04 21:00:00 10 21 Sudoeste 42 Sudoeste 0 -- -- 96
2020-03-04 20:00:00 10.1 20 Sur 50 Sudoeste 0 -- -- 95
2020-03-04 19:00:00 10.4 28 Sudoeste 42 Sur 0 -- -- 92
2020-03-04 18:00:00 10.9 28 Sudoeste 50 Sur 0 -- -- 86
2020-03-04 17:00:00 11.1 18 Sudoeste 33 Oeste 0 -- -- 87
2020-03-04 16:00:00 11 15 Sudoeste 38 Sudoeste 0 -- -- 85
2020-03-04 15:00:00 11.3 18 Sudoeste 49 Oeste 0 -- -- 85
2020-03-04 14:00:00 10.7 21 Sudoeste 45 Oeste 0 -- -- 87
2020-03-04 13:00:00 9.9 14 Sudoeste 37 Sudoeste 0.2 -- -- 97
2020-03-04 12:00:00 10.1 24 Sudoeste 43 Sudoeste 0 -- -- 92
2020-03-04 11:00:00 9.6 11 Sudoeste 27 Sudoeste 0 -- -- 90
2020-03-04 10:00:00 8.9 10 Sur 22 Sudoeste 0 -- -- 90
2020-03-04 09:00:00 8.4 14 Sudoeste 37 Oeste 0 -- -- 92
2020-03-04 08:00:00 8 16 Sudoeste 36 Sudoeste 0 -- -- 93
2020-03-04 07:00:00 7.8 10 Sudoeste 40 Sudoeste 0.2 -- -- 96
2020-03-04 06:00:00 7.9 18 Sudoeste 35 Oeste 0 -- -- 97
2020-03-04 05:00:00 8.3 18 Sudoeste 35 Sudoeste 0.2 -- -- 95
2020-03-04 04:00:00 8.4 10 Sudoeste 32 Sudoeste 0 -- -- 97
2020-03-04 03:00:00 8.4 16 Sudoeste 36 Oeste 0.6 -- -- 99
2020-03-04 02:00:00 9.2 13 Oeste 39 Sudoeste 0.2 -- -- 100
2020-03-04 01:00:00 9.3 8 Oeste 25 Sudoeste 0.4 -- -- 100
2020-03-04 00:00:00 9.3 11 Oeste 31 Sudoeste 0.2 -- -- 100
2020-03-03 23:00:00 9.3 15 Sudoeste 35 Sudoeste 0.2 -- -- 100
2020-03-03 22:00:00 9.4 17 Sudoeste 37 Sudoeste 0.2 -- -- 100
2020-03-03 21:00:00 9.3 12 Sudoeste 33 Sudoeste 0.2 -- -- 100
2020-03-03 20:00:00 8.7 8 Sudoeste 16 Sur 0.2 -- -- 99
2020-03-03 19:00:00 8.4 6 Oeste 15 Oeste 0.2 -- -- 97
2020-03-03 18:00:00 8.5 4 Norte 12 Oeste 0.4 -- -- 99
2020-03-03 17:00:00 8.8 5 Oeste 30 Oeste 0 -- -- 94
2020-03-03 16:00:00 9.4 16 Oeste 40 Oeste 0 -- -- 94
2020-03-03 15:00:00 10.3 9 Oeste 33 Noroeste 0.4 -- -- 97
2020-03-03 14:00:00 10.4 12 Oeste 38 Oeste 0.2 -- -- 95
2020-03-03 13:00:00 10 16 Oeste 38 Oeste 1.2 -- -- 100
2020-03-03 12:00:00 9.7 15 Oeste 44 Oeste 1.4 -- -- 100
2020-03-03 11:00:00 9.4 22 Oeste 51 Oeste 1 -- -- 100
2020-03-03 10:00:00 8.5 21 Sudoeste 44 Sudoeste 2.2 -- -- 99
2020-03-03 09:00:00 7.8 24 Sudoeste 60 Sudoeste 1.6 -- -- 98
2020-03-03 08:00:00 7.2 28 Sudoeste 64 Sudoeste 0.6 -- -- 99
2020-03-03 07:00:00 6.4 41 Sudoeste 77 Sur 0.6 -- -- 99
2020-03-03 06:00:00 5.3 41 Sudoeste 76 Sur 0.6 -- -- 97
2020-03-03 05:00:00 5.2 39 Sudoeste 80 Sur 0.8 -- -- 97
2020-03-03 04:00:00 4.9 35 Sudoeste 58 Sudoeste 0.4 -- -- 98
2020-03-03 03:00:00 4.3 39 Sudoeste 57 Sur 1 -- -- 93
2020-03-03 02:00:00 4 20 Sudoeste 42 Sur 0.6 -- -- 96
2020-03-03 01:00:00 4 15 Sudoeste 35 Sudoeste 0.2 -- -- 94
2020-03-03 00:00:00 3.6 14 Sudoeste 35 Sudoeste 0 -- -- 98
2020-03-02 23:00:00 3 13 Sudoeste 32 Oeste 0 -- -- 97
2020-03-02 22:00:00 2.8 14 Sudoeste 32 Sudoeste 0.2 -- -- 96
2020-03-02 21:00:00 2.6 8 Sudoeste 30 Oeste 0 -- -- 94
2020-03-02 20:00:00 2.6 18 Oeste 39 Sudoeste 0 -- -- 94
2020-03-02 19:00:00 2.8 10 Oeste 36 Oeste 0.6 -- -- 95
2020-03-02 18:00:00 3.7 12 Sudoeste 28 Oeste 0 -- -- 87
2020-03-02 17:00:00 3.9 8 Oeste 38 Oeste 0 -- -- 90
2020-03-02 16:00:00 4.4 16 Oeste 36 Oeste 0.4 -- -- 85
2020-03-02 15:00:00 3 13 Norte 31 Noroeste 1.8 -- -- 95
2020-03-02 14:00:00 2.6 18 Noroeste 42 Noroeste 0.4 -- -- 90
2020-03-02 13:00:00 3.3 19 Noroeste 51 Noroeste 0 -- -- 83
2020-03-02 12:00:00 2.3 14 Noroeste 46 Noroeste 1.8 -- -- 92
2020-03-02 11:00:00 1 22 Noroeste 43 Noroeste 1.8 -- -- 100
2020-03-02 10:00:00 0.6 5 Sudoeste 27 Noroeste 0.4 -- -- 100
2020-03-02 09:00:00 1.1 10 Noroeste 26 Oeste 1.4 -- -- 99
2020-03-02 08:00:00 1.6 10 Oeste 45 Noroeste 1.4 -- -- 98
2020-03-02 07:00:00 2.5 18 Noroeste 56 Noroeste 1.2 -- -- 98
2020-03-02 06:00:00 3.5 17 Oeste 50 Oeste 0 -- -- 97
2020-03-02 05:00:00 4.1 19 Oeste 57 Oeste 0.4 -- -- 98
2020-03-02 04:00:00 5.1 24 Oeste 68 Oeste 0.6 -- -- 97
2020-03-02 03:00:00 7.2 34 Oeste 99 Sudoeste 1.6 -- -- 96
2020-03-02 02:00:00 9.2 45 Sudoeste 81 Sudoeste 2 -- -- 97
2020-03-02 01:00:00 8.8 39 Sudoeste 82 Sudoeste 2.8 -- -- 97
2020-03-02 00:00:00 9 33 Sudoeste 83 Sudoeste 4.8 -- -- 98